Weather reports worldwide

Advertisment
Kahler Asten, Germany (10427): temperature & dewpoint: 10.09.2019 17:00:00 - 16.09.2019 17:00:00 (CEST)Kahler Asten, Germany (10427): temperature 5cm & temperature -5cm: 10.09.2019 17:00:00 - 16.09.2019 17:00:00 (CEST)Kahler Asten, Germany (10427): temperature -20cm & temperature -100cm: 10.09.2019 17:00:00 - 16.09.2019 17:00:00 (CEST)Kahler Asten, Germany (10427): wind speed & gusts: 10.09.2019 17:00:00 - 16.09.2019 17:00:00 (CEST)Kahler Asten, Germany (10427): wind direction: 10.09.2019 17:00:00 - 16.09.2019 17:00:00 (CEST)Kahler Asten, Germany (10427): visibility: 10.09.2019 17:00:00 - 16.09.2019 17:00:00 (CEST)Kahler Asten, Germany (10427): sunshine duration: 10.09.2019 17:00:00 - 16.09.2019 17:00:00 (CEST)Kahler Asten, Germany (10427): precipitation: 10.09.2019 17:00:00 - 16.09.2019 17:00:00 (CEST)
Date & Time tt [°C] td [°C] tt 5cm [°C] tt -5cm [°C] tt -20cm [°C] tt -100cm [°C] ff [km/h] ff [kn] fx [km/h] fx [kn] dd vv [km] sd [min] rr [mm]
16.09.2019 17:00:00 11,9 11,5 12,0 13,2 13,4 13,2 20 11 40 22 W 0,2 0 2,4
16.09.2019 16:00:00 12,0 11,5 12,1 13,4 13,4 13,2 18 10 33 18 W 0,3 0 1,3
16.09.2019 15:00:00 12,1 11,5 12,1 13,6 13,4 13,2 21 11 33 18 W 4,5 0 0,6
16.09.2019 14:00:00 12,5 10,9 12,7 13,9 13,3 13,2 21 11 37 20 WSW 29 0 0,0
16.09.2019 13:00:00 12,1 11,3 12,7 13,6 13,2 13,2 23 12 31 17 WSW 8 0 0,0
16.09.2019 12:00:00 11,9 11,1 12,2 13,8 13,1 13,2 16 9 27 15 WSW 5 0 0,0
16.09.2019 11:00:00 12,2 10,7 13,2 13,3 13,0 13,2 15 8 25 14 WSW 20 0 0,0
16.09.2019 10:00:00 11,7 10,5 12,1 12,8 13,0 13,2 16 9 24 13 WSW 17 0 0,0
16.09.2019 09:00:00 11,0 10,5 11,1 12,0 13,1 13,2 16 8 22 12 WSW 2,9 0 0,0
16.09.2019 08:00:00 11,3 9,2 10,7 11,7 13,2 13,2 12 6 22 12 WNW 75 0 0,0
16.09.2019 07:00:00 10,7 9,8 10,1 11,6 13,3 13,2 14 8 23 12 W 14 0 0,0
16.09.2019 06:00:00 10,9 10,3 10,5 12,0 13,4 13,2 17 9 29 15 NW 4,7 0 0,0
16.09.2019 05:00:00 11,1 10,3 10,6 12,1 13,5 13,2 14 8 27 15 WNW 7 0 0,0
16.09.2019 04:00:00 11,4 10,5 11,1 12,3 13,6 13,2 22 12 36 19 NW 11 0 0,0
16.09.2019 03:00:00 11,8 11,2 11,6 12,2 13,8 13,2 25 13 37 20 NW 6 0 0,0
16.09.2019 02:00:00 11,5 10,9 11,1 12,0 14,0 13,2 23 13 35 19 NW 4,7 0 0,0
16.09.2019 01:00:00 11,3 8,8 10,4 11,8 14,2 13,2 22 12 28 15 NW 33 0 0,0
16.09.2019 00:00:00 12,3 6,7 11,0 12,3 14,5 13,2 20 11 36 19 NW 55 0 0,0
15.09.2019 23:00:00 13,5 5,9 12,2 12,6 14,8 13,2 27 15 39 21 NW 64 0 0,0
15.09.2019 22:00:00 14,1 3,4 12,5 13,1 15,1 13,2 22 12 33 18 WNW 64 0 0,0
15.09.2019 21:00:00 14,4 3,0 12,6 13,9 15,4 13,2 18 10 31 17 W 75 0 0,0
15.09.2019 20:00:00 15,1 2,2 13,3 15,2 15,6 13,2 19 10 34 18 W 72 12 0,0
15.09.2019 19:00:00 17,1 2,0 16,0 17,1 15,6 13,2 21 11 37 20 W 67 60 0,0
15.09.2019 18:00:00 18,0 1,3 18,4 18,7 15,5 13,2 24 13 39 21 W 74 60 0,0
15.09.2019 17:00:00 18,6 2,4 19,8 19,5 15,2 13,2 19 11 36 19 WSW 75 60 0,0
15.09.2019 16:00:00 18,8 1,7 21,0 20,1 14,7 13,2 23 12 35 19 W 68 60 0,0
15.09.2019 15:00:00 18,4 4,7 20,2 21,1 14,0 13,2 22 12 36 20 WSW 71 60 0,0
15.09.2019 14:00:00 18,3 4,4 21,4 20,8 13,3 13,2 19 10 33 18 W 75 60 0,0
15.09.2019 13:00:00 17,4 4,0 20,9 19,2 12,7 13,2 22 12 36 20 W 72 60 0,0
15.09.2019 12:00:00 16,4 4,8 18,6 17,5 12,2 13,2 21 11 34 19 W 75 60 0,0
15.09.2019 11:00:00 15,2 7,9 17,6 15,2 11,8 13,2 22 12 40 21 W 65 60 0,0
15.09.2019 10:00:00 13,7 7,5 15,3 12,6 11,6 13,2 28 15 39 21 W 60 60 0,0
15.09.2019 09:00:00 12,3 6,9 13,0 10,4 11,6 13,2 23 12 34 18 W 52 60 0,0
15.09.2019 08:00:00 11,2 6,6 10,3 8,9 11,8 13,2 23 13 32 18 W 54 1 0,0
15.09.2019 07:00:00 11,2 6,0 9,4 8,7 12,0 13,2 26 14 35 19 WSW 56 0 0,0
15.09.2019 06:00:00 11,2 5,3 9,4 8,8 12,2 13,2 26 14 32 17 WSW 65 0 0,0
15.09.2019 05:00:00 11,4 4,8 9,2 8,9 12,5 13,2 25 13 31 17 W 72 0 0,0
15.09.2019 04:00:00 11,5 4,5 9,4 9,0 12,8 13,2 22 12 27 15 WSW 71 0 0,0
15.09.2019 03:00:00 11,1 4,5 9,5 9,4 13,1 13,2 22 12 30 16 SW 61 0 0,0
15.09.2019 02:00:00 11,7 4,4 9,9 9,7 13,4 13,2 24 13 30 16 SW 61 0 0,0
15.09.2019 01:00:00 11,3 4,3 9,1 10,1 13,8 13,2 17 9 23 12 SSW 64 0 0,0
15.09.2019 00:00:00 12,2 4,1 10,1 10,6 14,2 13,2 18 10 21 11 S 71 0 0,0
14.09.2019 23:00:00 11,8 4,0 9,6 11,2 14,6 13,2 16 9 20 11 SSE 63 0 0,0
14.09.2019 22:00:00 11,4 4,2 8,9 12,1 15,0 13,2 16 9 19 11 ESE 68 0 0,0
14.09.2019 21:00:00 11,7 5,0 9,7 13,2 15,3 13,2 15 8 18 10 ESE 70 0 0,0
14.09.2019 20:00:00 12,8 4,7 9,4 14,9 15,5 13,2 11 6 17 9 E 70 18 0,0
14.09.2019 19:00:00 14,8 4,7 13,6 17,4 15,5 13,2 10 5 15 8 ENE 70 60 0,0
14.09.2019 18:00:00 16,7 5,5 18,1 19,4 15,2 13,2 3 2 12 6 W 65 60 0,0
14.09.2019 17:00:00 16,7 5,5 19,2 20,4 14,8 13,2 6 4 16 9 NNW 75 60 0,0
14.09.2019 16:00:00 16,6 4,4 20,5 20,5 14,2 13,2 3 2 17 9 W 58 60 0,0
14.09.2019 15:00:00 16,2 3,4 19,0 21,8 13,4 13,2 8 4 17 9 SW 68 60 0,0
14.09.2019 14:00:00 15,1 5,6 17,4 20,8 12,7 13,2 6 3 18 10 SSW 75 59 0,0
14.09.2019 13:00:00 13,8 4,1 16,2 18,9 11,9 13,2 9 5 19 10 SSE 58 60 0,0
14.09.2019 12:00:00 12,8 5,5 15,5 16,9 11,4 13,2 11 6 22 12 SE 55 60 0,0
14.09.2019 11:00:00 11,4 6,0 13,8 14,0 11,0 13,2 14 7 24 13 ESE 44 60 0,0
14.09.2019 10:00:00 10,1 6,0 11,8 11,3 10,8 13,2 15 8 27 15 E 47 60 0,0
14.09.2019 09:00:00 8,7 5,6 9,2 8,9 10,9 13,2 21 11 28 15 ESE 44 60 0,0
14.09.2019 08:00:00 7,4 5,3 6,7 7,0 11,1 13,2 17 9 23 12 E 35 7 0,0
14.09.2019 07:00:00 7,2 4,8 5,2 6,8 11,4 13,2 17 9 22 12 E 40 0 0,0
14.09.2019 06:00:00 6,9 5,1 5,2 7,1 11,7 13,2 16 9 25 13 E 40 0 0,0
14.09.2019 05:00:00 6,9 3,6 5,1 7,4 12,0 13,2 15 8 21 12 ENE 53 0 0,0
14.09.2019 04:00:00 7,3 4,0 4,6 7,8 12,3 13,2 15 8 21 11 ENE 48 0 0,0
14.09.2019 03:00:00 7,5 4,9 5,2 8,4 12,6 13,2 16 9 25 13 ENE 43 0 0,0
14.09.2019 02:00:00 8,0 5,5 6,0 8,9 13,0 13,2 16 9 22 12 ENE 46 0 0,0
14.09.2019 01:00:00 8,4 6,3 6,5 9,5 13,3 13,2 18 10 23 13 ENE 47 0 0,0
14.09.2019 00:00:00 8,8 7,3 7,0 10,2 13,7 13,2 17 9 24 13 NE 41 0 0,0
13.09.2019 23:00:00 9,8 8,7 8,3 10,9 14,0 13,2 19 10 30 16 NE 29 0 0,0
13.09.2019 22:00:00 10,6 8,8 8,6 11,5 14,3 13,2 17 9 23 12 N 47 0 0,0
13.09.2019 21:00:00 10,6 9,4 8,7 12,4 14,6 13,2 17 9 21 11 N 43 0 0,0
13.09.2019 20:00:00 11,3 9,8 9,5 13,9 14,7 13,2 13 7 23 12 N 41 0 0,0
13.09.2019 19:00:00 12,7 10,7 12,3 15,4 14,7 13,2 14 8 23 13 N 43 9 0,0
13.09.2019 18:00:00 13,6 11,2 14,2 16,4 14,6 13,2 16 8 30 16 NNW 45 10 0,0
13.09.2019 17:00:00 13,5 10,6 14,3 17,4 14,3 13,2 20 11 33 18 NNW 62 37 0,0
13.09.2019 16:00:00 12,9 11,1 14,3 16,6 14,1 13,2 20 11 42 23 NNW 73 5 0,0
13.09.2019 15:00:00 14,9 12,7 16,0 17,2 13,8 13,2 21 12 37 20 WNW 30 13 0,0
13.09.2019 14:00:00 13,9 13,0 14,5 15,7 13,6 13,2 18 10 29 15 NW 14 0 0,1
13.09.2019 13:00:00 13,7 13,3 14,5 15,7 13,4 13,2 19 10 35 19 WNW 14 2 0,0
13.09.2019 12:00:00 13,2 12,9 14,1 14,4 13,3 13,2 16 9 28 15 WNW 0,3 0 0,0
13.09.2019 11:00:00 13,0 12,7 13,4 13,9 13,2 13,2 18 10 29 15 WNW 0,1 0 0,1
13.09.2019 10:00:00 12,6 12,3 12,9 13,3 13,2 13,2 18 10 27 15 W 0,1 0 0,1
13.09.2019 09:00:00 12,4 12,1 12,6 12,9 13,2 13,2 16 9 32 17 W 0,1 0 0,4
13.09.2019 08:00:00 12,6 12,3 12,5 12,9 13,2 13,2 23 12 34 19 W 0,1 0 0,1
13.09.2019 07:00:00 12,7 12,4 12,7 12,8 13,2 13,2 23 13 36 20 W 0,1 0 0,0
13.09.2019 06:00:00 12,7 12,4 12,6 12,8 13,2 13,2 21 12 45 24 W 0,1 0 0,0
13.09.2019 05:00:00 12,7 12,4 12,6 12,7 13,2 13,2 28 15 53 28 W 0,1 0 0,0
13.09.2019 04:00:00 12,7 12,4 12,6 12,6 13,3 13,3 27 15 43 23 WSW 0,2 0 0,0
13.09.2019 03:00:00 12,8 11,9 12,5 12,5 13,4 13,3 27 15 39 21 W 11 0 0,0
13.09.2019 02:00:00 12,9 10,9 12,6 12,1 13,5 13,3 25 14 38 21 W 31 0 0,0
13.09.2019 01:00:00 13,0 10,5 12,1 12,0 13,7 13,3 27 15 40 21 W 39 0 0,0
13.09.2019 00:00:00 13,4 10,5 12,7 12,5 13,8 13,3 28 15 42 23 W 42 0 0,0
12.09.2019 23:00:00 13,8 10,5 13,4 12,6 14,1 13,3 27 15 40 22 W 38 0 0,0
12.09.2019 22:00:00 13,2 10,4 12,1 12,6 14,3 13,3 28 15 39 21 W 48 0 0,0
12.09.2019 21:00:00 13,1 10,9 11,7 13,3 14,5 13,3 21 11 30 16 W 59 0 0,0
12.09.2019 20:00:00 14,1 11,2 12,9 14,4 14,6 13,3 22 12 34 18 WSW 69 7 0,0
12.09.2019 19:00:00 15,2 11,2 14,8 15,8 14,6 13,3 24 13 35 19 WSW 75 22 0,0
12.09.2019 18:00:00 16,1 10,8 16,8 16,9 14,4 13,3 24 13 45 24 WSW 62 41 0,0
12.09.2019 17:00:00 16,0 11,8 17,6 17,5 14,1 13,3 25 13 43 23 WSW 64 41 0,0
12.09.2019 16:00:00 15,8 11,8 17,5 17,2 13,8 13,3 27 15 43 23 WSW 63 24 0,0
12.09.2019 15:00:00 14,2 12,8 15,0 16,9 13,5 13,3 16 8 27 15 WSW 33 8 0,0
12.09.2019 14:00:00 14,5 12,7 17,9 17,1 13,1 13,3 18 10 33 18 WSW 29 8 0,0
12.09.2019 13:00:00 13,5 12,9 14,8 15,9 12,7 13,3 19 10 31 17 WSW 12 0 0,0
12.09.2019 12:00:00 12,9 12,5 14,6 14,3 12,5 13,3 22 12 34 18 W 8 0 0,0
12.09.2019 11:00:00 12,1 11,7 12,7 13,5 12,4 13,3 23 12 34 18 W 0,6 0 0,0
12.09.2019 10:00:00 11,9 11,6 12,2 12,8 12,3 13,3 16 9 27 15 W 0,1 0 0,0
12.09.2019 09:00:00 11,5 11,2 11,9 11,9 12,3 13,3 14 8 23 13 WSW 0,1 0 0,0
12.09.2019 08:00:00 11,0 10,7 11,0 11,5 12,3 13,3 13 7 22 12 WSW 0,1 0 0,0
12.09.2019 07:00:00 10,9 10,6 10,9 11,4 12,3 13,3 13 7 24 13 WSW 0,1 0 0,1
12.09.2019 06:00:00 10,8 10,5 10,7 11,3 12,4 13,3 14 7 27 15 WSW 0,1 0 0,0
12.09.2019 05:00:00 10,5 10,2 10,5 11,2 12,4 13,3 18 10 29 16 WSW 0,1 0 0,6
12.09.2019 04:00:00 10,3 9,9 10,3 11,2 12,5 13,4 15 8 30 16 WSW 0,1 0 0,6
12.09.2019 03:00:00 10,2 9,9 10,1 11,2 12,6 13,4 18 10 35 19 WSW 0,1 0 0,6
12.09.2019 02:00:00 10,1 9,8 10,1 11,2 12,7 13,4 21 12 37 20 WSW 0,1 0 0,4
12.09.2019 01:00:00 10,0 9,7 10,0 11,3 12,8 13,4 23 12 37 20 WSW 1,0 0 0,2
12.09.2019 00:00:00 9,7 9,3 9,7 11,3 13,0 13,4 21 11 34 19 WSW 0,1 0 0,3
11.09.2019 23:00:00 9,3 9,0 9,3 11,4 13,2 13,4 23 13 42 23 WSW 0,1 0 0,5
11.09.2019 22:00:00 9,1 8,7 9,1 11,7 13,4 13,4 28 15 40 22 WSW 0,2 0 0,3
11.09.2019 21:00:00 9,2 8,8 9,2 12,1 13,7 13,4 27 14 42 23 WSW 0,1 0 1,1
11.09.2019 20:00:00 9,4 8,6 9,1 13,0 13,8 13,4 31 17 45 24 WSW 4,3 0 0,3
11.09.2019 19:00:00 10,4 8,8 9,9 14,0 13,9 13,4 27 15 38 20 WSW 12 0 0,1
11.09.2019 18:00:00 12,7 7,2 12,8 15,4 13,8 13,4 26 14 38 21 WSW 48 0 0,0
11.09.2019 17:00:00 14,1 6,7 14,9 16,3 13,6 13,4 25 14 44 24 WSW 60 0 0,0
11.09.2019 16:00:00 14,3 5,5 14,8 17,2 13,3 13,4 28 15 45 25 SW 58 11 0,0
11.09.2019 15:00:00 14,7 5,0 15,6 18,0 12,8 13,4 26 14 50 27 SW 50 34 0,0
11.09.2019 14:00:00 14,5 4,8 16,6 17,8 12,3 13,4 25 13 45 24 WSW 65 29 0,0
11.09.2019 13:00:00 14,6 5,1 17,5 17,8 11,7 13,4 29 16 50 27 SW 49 54 0,0
11.09.2019 12:00:00 13,8 5,1 16,0 16,0 11,2 13,5 25 13 38 20 SW 73 58 0,0
11.09.2019 11:00:00 12,5 5,5 14,2 12,8 10,9 13,5 18 10 29 15 SW 63 15 0,0
11.09.2019 10:00:00 10,9 4,6 11,4 10,4 10,7 13,5 16 8 24 13 SW 42 0 0,0
11.09.2019 09:00:00 11,1 4,6 11,1 10,3 10,7 13,5 14 7 23 12 SW 48 32 0,0
11.09.2019 08:00:00 9,9 4,1 9,4 8,2 10,8 13,5 13 7 19 10 WSW 39 0 0,0
11.09.2019 07:00:00 9,5 3,8 8,5 7,4 11,0 13,5 13 7 18 10 SW 33 0 0,0
11.09.2019 06:00:00 9,1 2,9 5,9 7,0 11,2 13,5 13 7 18 10 WSW 30 0 0,0
11.09.2019 05:00:00 9,2 2,5 5,9 7,3 11,5 13,5 16 9 20 11 WSW 30 0 0,0
11.09.2019 04:00:00 9,3 2,5 5,1 7,6 11,7 13,5 14 8 16 9 WSW 32 0 0,0
11.09.2019 03:00:00 9,2 2,9 5,7 8,1 12,0 13,5 16 8 18 10 W 40 0 0,0
11.09.2019 02:00:00 9,5 3,1 6,3 8,7 12,3 13,5 14 8 17 9 W 46 0 0,0
11.09.2019 01:00:00 9,5 3,8 6,2 8,8 12,6 13,5 13 7 16 9 WSW 55 0 0,0
11.09.2019 00:00:00 9,7 3,8 4,5 9,0 13,0 13,6 11 6 14 7 WSW 63 0 0,0
10.09.2019 23:00:00 9,8 3,6 3,5 9,6 13,4 13,6 9 5 10 5 SW 58 0 0,0
10.09.2019 22:00:00 9,6 4,1 2,0 10,5 13,7 13,6 6 3 14 8 WNW 47 0 0,0
10.09.2019 21:00:00 10,0 3,8 4,9 11,6 14,0 13,6 11 6 13 7 NW 55 0 0,0
10.09.2019 20:00:00 10,6 4,4 7,1 13,3 14,2 13,6 10 6 13 7 NW 60 23 0,0
10.09.2019 19:00:00 11,4 4,9 10,5 14,9 14,3 13,6 10 5 17 9 NW 59 22 0,0
10.09.2019 18:00:00 12,3 4,9 13,0 16,2 14,2 13,6 9 5 22 12 W 64 0 0,0
10.09.2019 17:00:00 12,5 4,3 13,8 17,3 14,0 13,6 13 7 24 13 W 68 0 0,0

tt = temperature
td = dewpoint
tt 5cm = temperature 5cm
tt -5cm = temperature -5cm
tt -20cm = temperature -20cm
tt -100cm = temperature -100cm
ff = wind speed
fx = gusts
dd = wind direction
vv = visibility
sd = sunshine duration
rr = precipitation

Next stations